Time,TemperatureF,DewpointF,PressureIn,WindDirection,WindDirectionDegrees,WindSpeedMPH,WindSpeedGustMPH,Humidity,HourlyPrecipIn,Conditions,Clouds,dailyrainin,SolarRadiationWatts/m^2,SoftwareType,DateUTC
2013-11-19 00:22:00,39.0,38.0,-100.00,South,182,5.0,17.0,95,0.05,,,0.12,0.000000,,2013-11-19 08:22:00,
2013-11-19 00:32:00,39.0,38.0,-100.00,South,182,5.0,17.0,95,0.05,,,0.12,0.000000,,2013-11-19 08:32:00,
2013-11-19 00:42:00,39.0,38.0,-100.00,South,182,5.0,17.0,95,0.05,,,0.12,0.000000,,2013-11-19 08:42:00,
2013-11-19 00:52:00,39.0,38.0,-100.00,South,182,5.0,17.0,95,0.05,,,0.12,0.000000,,2013-11-19 08:52:00,
2013-11-19 01:21:00,39.0,37.0,-100.00,South,183,5.0,13.0,93,0.00,,,0.12,0.000000,,2013-11-19 09:21:00,
2013-11-19 01:33:00,39.0,37.0,-100.00,South,183,5.0,13.0,93,0.00,,,0.12,0.000000,,2013-11-19 09:33:00,
2013-11-19 01:43:00,39.0,37.0,-100.00,South,183,5.0,13.0,93,0.00,,,0.12,0.000000,,2013-11-19 09:43:00,
2013-11-19 01:53:00,39.0,37.0,-100.00,South,183,5.0,13.0,93,0.00,,,0.12,0.000000,,2013-11-19 09:53:00,
2013-11-19 02:23:00,39.0,37.0,-100.00,South,183,6.0,15.0,93,0.01,,,0.13,0.000000,,2013-11-19 10:23:00,
2013-11-19 02:32:00,39.0,37.0,-100.00,South,183,6.0,15.0,93,0.01,,,0.13,0.000000,,2013-11-19 10:32:00,
2013-11-19 02:43:00,39.0,37.0,-100.00,South,183,6.0,15.0,93,0.01,,,0.13,0.000000,,2013-11-19 10:43:00,
2013-11-19 02:52:00,39.0,37.0,-100.00,South,183,6.0,15.0,93,0.01,,,0.13,0.000000,,2013-11-19 10:52:00,
2013-11-19 03:22:00,38.0,37.0,-100.00,SSW,205,6.0,14.0,95,0.05,,,0.18,0.000000,,2013-11-19 11:22:00,
2013-11-19 03:32:00,38.0,37.0,-100.00,SSW,205,6.0,14.0,95,0.05,,,0.18,0.000000,,2013-11-19 11:32:00,
2013-11-19 03:42:00,38.0,37.0,-100.00,SSW,205,6.0,14.0,95,0.05,,,0.18,0.000000,,2013-11-19 11:42:00,
2013-11-19 03:52:00,38.0,37.0,-100.00,SSW,205,6.0,14.0,95,0.05,,,0.18,0.000000,,2013-11-19 11:52:00,
2013-11-19 04:21:00,38.0,37.0,-100.00,South,185,5.0,12.0,96,0.04,,,0.22,0.000000,,2013-11-19 12:21:00,
2013-11-19 04:32:00,38.0,37.0,-100.00,South,185,5.0,12.0,96,0.04,,,0.22,0.000000,,2013-11-19 12:32:00,
2013-11-19 04:42:00,38.0,37.0,-100.00,South,185,5.0,12.0,96,0.04,,,0.22,0.000000,,2013-11-19 12:42:00,
2013-11-19 04:52:00,38.0,37.0,-100.00,South,185,5.0,12.0,96,0.04,,,0.22,0.000000,,2013-11-19 12:52:00,
2013-11-19 05:42:00,38.0,37.0,-100.00,SSW,195,5.0,12.0,95,0.02,,,0.24,0.000000,,2013-11-19 13:42:00,
2013-11-19 05:52:00,38.0,37.0,-100.00,SSW,195,5.0,12.0,95,0.02,,,0.24,0.000000,,2013-11-19 13:52:00,
2013-11-19 06:22:00,38.0,37.0,-100.00,South,186,8.0,16.0,95,0.05,,,0.29,0.000000,,2013-11-19 14:22:00,
2013-11-19 06:32:00,38.0,37.0,-100.00,South,186,8.0,16.0,95,0.05,,,0.29,0.000000,,2013-11-19 14:32:00,
2013-11-19 06:42:00,38.0,37.0,-100.00,South,186,8.0,16.0,95,0.05,,,0.29,0.000000,,2013-11-19 14:42:00,
2013-11-19 06:52:00,38.0,37.0,-100.00,South,186,8.0,16.0,95,0.05,,,0.29,0.000000,,2013-11-19 14:52:00,
2013-11-19 07:21:00,38.0,37.0,-100.00,South,182,7.0,16.0,95,0.02,,,0.31,0.000000,,2013-11-19 15:21:00,
2013-11-19 07:32:00,38.0,37.0,-100.00,South,182,7.0,16.0,95,0.02,,,0.31,0.000000,,2013-11-19 15:32:00,
2013-11-19 07:43:00,38.0,37.0,-100.00,South,182,7.0,16.0,95,0.02,,,0.31,0.000000,,2013-11-19 15:43:00,
2013-11-19 07:53:00,38.0,37.0,-100.00,South,182,7.0,16.0,95,0.02,,,0.31,0.000000,,2013-11-19 15:53:00,
2013-11-19 08:23:00,38.0,37.0,-100.00,South,170,7.0,16.0,95,0.01,,,0.32,15.000000,,2013-11-19 16:23:00,
2013-11-19 08:33:00,38.0,37.0,-100.00,South,170,7.0,16.0,95,0.01,,,0.32,15.000000,,2013-11-19 16:33:00,
2013-11-19 08:43:00,38.0,37.0,-100.00,South,170,7.0,16.0,95,0.01,,,0.32,15.000000,,2013-11-19 16:43:00,
2013-11-19 08:52:00,38.0,37.0,-100.00,South,170,7.0,16.0,95,0.01,,,0.32,15.000000,,2013-11-19 16:52:00,
2013-11-19 09:22:00,40.0,38.0,-100.00,South,176,7.0,18.0,94,0.01,,,0.33,2.000000,,2013-11-19 17:22:00,
2013-11-19 09:32:00,40.0,38.0,-100.00,South,176,7.0,18.0,94,0.01,,,0.33,2.000000,,2013-11-19 17:32:00,
2013-11-19 09:43:00,40.0,38.0,-100.00,South,176,7.0,18.0,94,0.01,,,0.33,2.000000,,2013-11-19 17:43:00,
2013-11-19 09:52:00,40.0,38.0,-100.00,South,176,7.0,18.0,94,0.01,,,0.33,2.000000,,2013-11-19 17:52:00,
2013-11-19 10:22:00,41.0,38.0,-100.00,South,186,10.0,19.0,90,0.01,,,0.34,0.000000,,2013-11-19 18:22:00,
2013-11-19 10:32:00,41.0,38.0,-100.00,South,186,10.0,19.0,90,0.01,,,0.34,0.000000,,2013-11-19 18:32:00,
2013-11-19 10:42:00,41.0,38.0,-100.00,South,186,10.0,19.0,90,0.01,,,0.34,0.000000,,2013-11-19 18:42:00,
2013-11-19 10:52:00,41.0,38.0,-100.00,South,186,10.0,19.0,90,0.01,,,0.34,0.000000,,2013-11-19 18:52:00,
2013-11-19 11:21:00,41.0,37.0,-100.00,South,178,8.0,16.0,87,0.00,,,0.34,0.000000,,2013-11-19 19:21:00,
2013-11-19 11:31:00,41.0,37.0,-100.00,South,178,8.0,16.0,87,0.00,,,0.34,0.000000,,2013-11-19 19:31:00,
2013-11-19 11:41:00,41.0,37.0,-100.00,South,178,8.0,16.0,87,0.00,,,0.34,0.000000,,2013-11-19 19:41:00,
2013-11-19 11:52:00,41.0,37.0,-100.00,South,178,8.0,16.0,87,0.00,,,0.34,0.000000,,2013-11-19 19:52:00,
2013-11-19 12:21:00,41.0,38.0,-100.00,South,186,8.0,20.0,89,0.01,,,0.35,0.000000,,2013-11-19 20:21:00,
2013-11-19 12:31:00,41.0,38.0,-100.00,South,186,8.0,20.0,89,0.01,,,0.35,0.000000,,2013-11-19 20:31:00,
2013-11-19 12:42:00,41.0,38.0,-100.00,South,186,8.0,20.0,89,0.01,,,0.35,0.000000,,2013-11-19 20:42:00,
2013-11-19 12:52:00,41.0,38.0,-100.00,South,186,8.0,20.0,89,0.01,,,0.35,0.000000,,2013-11-19 20:52:00,
2013-11-19 13:21:00,41.0,40.0,-100.00,SW,228,6.0,12.0,95,0.03,,,0.38,0.000000,,2013-11-19 21:21:00,
2013-11-19 13:33:00,41.0,40.0,-100.00,SW,228,6.0,12.0,95,0.03,,,0.38,0.000000,,2013-11-19 21:33:00,
2013-11-19 13:43:00,41.0,40.0,-100.00,SW,228,6.0,12.0,95,0.03,,,0.38,0.000000,,2013-11-19 21:43:00,
2013-11-19 13:54:00,41.0,40.0,-100.00,SW,228,6.0,12.0,95,0.03,,,0.38,0.000000,,2013-11-19 21:54:00,
2013-11-19 14:23:00,43.0,40.0,-100.00,South,185,8.0,14.0,89,0.01,,,0.39,0.000000,,2013-11-19 22:23:00,
2013-11-19 14:33:00,43.0,40.0,-100.00,South,185,8.0,14.0,89,0.01,,,0.39,0.000000,,2013-11-19 22:33:00,
2013-11-19 14:42:00,43.0,40.0,-100.00,South,185,8.0,14.0,89,0.01,,,0.39,0.000000,,2013-11-19 22:42:00,
2013-11-19 14:52:00,43.0,40.0,-100.00,South,185,8.0,14.0,89,0.01,,,0.39,0.000000,,2013-11-19 22:52:00,
2013-11-19 15:21:00,43.0,40.0,-100.00,SSW,196,7.0,15.0,89,0.01,,,0.40,0.000000,,2013-11-19 23:21:00,
2013-11-19 15:32:00,43.0,40.0,-100.00,SSW,196,7.0,15.0,89,0.01,,,0.40,0.000000,,2013-11-19 23:32:00,
2013-11-19 15:42:00,43.0,40.0,-100.00,SSW,196,7.0,15.0,89,0.01,,,0.40,0.000000,,2013-11-19 23:42:00,
2013-11-19 15:52:00,43.0,40.0,-100.00,SSW,196,7.0,15.0,89,0.01,,,0.40,0.000000,,2013-11-19 23:52:00,
2013-11-19 16:21:00,43.0,41.0,-100.00,SSW,200,7.0,19.0,92,0.00,,,0.40,0.000000,,2013-11-20 00:21:00,
2013-11-19 16:32:00,43.0,41.0,-100.00,SSW,200,7.0,19.0,92,0.00,,,0.40,0.000000,,2013-11-20 00:32:00,
2013-11-19 16:42:00,43.0,41.0,-100.00,SSW,200,7.0,19.0,92,0.00,,,0.40,0.000000,,2013-11-20 00:42:00,
2013-11-19 16:52:00,43.0,41.0,-100.00,SSW,200,7.0,19.0,92,0.00,,,0.40,0.000000,,2013-11-20 00:52:00,
2013-11-19 17:21:00,43.0,40.0,-100.00,SSW,204,9.0,17.0,88,0.00,,,0.40,0.000000,,2013-11-20 01:21:00,
2013-11-19 17:32:00,43.0,40.0,-100.00,SSW,204,9.0,17.0,88,0.00,,,0.40,0.000000,,2013-11-20 01:32:00,
2013-11-19 17:42:00,43.0,40.0,-100.00,SSW,204,9.0,17.0,88,0.00,,,0.40,0.000000,,2013-11-20 01:42:00,
2013-11-19 17:52:00,43.0,40.0,-100.00,SSW,204,9.0,17.0,88,0.00,,,0.40,0.000000,,2013-11-20 01:52:00,
2013-11-19 18:21:00,43.0,39.0,-100.00,South,189,7.0,17.0,86,0.00,,,0.40,0.000000,,2013-11-20 02:21:00,
2013-11-19 18:32:00,43.0,39.0,-100.00,South,189,7.0,17.0,86,0.00,,,0.40,0.000000,,2013-11-20 02:32:00,
2013-11-19 18:42:00,43.0,39.0,-100.00,South,189,7.0,17.0,86,0.00,,,0.40,0.000000,,2013-11-20 02:42:00,
2013-11-19 18:52:00,43.0,39.0,-100.00,South,189,7.0,17.0,86,0.00,,,0.40,0.000000,,2013-11-20 02:52:00,
2013-11-19 19:21:00,43.0,38.0,-100.00,South,181,6.0,15.0,82,0.00,,,0.40,0.000000,,2013-11-20 03:21:00,
2013-11-19 19:34:00,43.0,38.0,-100.00,South,181,6.0,15.0,82,0.00,,,0.40,0.000000,,2013-11-20 03:34:00,
2013-11-19 19:44:00,43.0,38.0,-100.00,South,181,6.0,15.0,82,0.00,,,0.40,0.000000,,2013-11-20 03:44:00,
2013-11-19 19:54:00,43.0,38.0,-100.00,South,181,6.0,15.0,82,0.00,,,0.40,0.000000,,2013-11-20 03:54:00,
2013-11-19 20:23:00,42.0,40.0,-100.00,SSW,206,6.0,14.0,91,0.01,,,0.41,0.000000,,2013-11-20 04:23:00,
2013-11-19 20:33:00,42.0,40.0,-100.00,SSW,206,6.0,14.0,91,0.01,,,0.41,0.000000,,2013-11-20 04:33:00,
2013-11-19 20:43:00,42.0,40.0,-100.00,SSW,206,6.0,14.0,91,0.01,,,0.41,0.000000,,2013-11-20 04:43:00,
2013-11-19 20:52:00,42.0,40.0,-100.00,SSW,206,6.0,14.0,91,0.01,,,0.41,0.000000,,2013-11-20 04:52:00,
2013-11-19 21:22:00,41.0,39.0,-100.00,SW,223,5.0,12.0,92,0.01,,,0.42,0.000000,,2013-11-20 05:22:00,
2013-11-19 21:33:00,41.0,39.0,-100.00,SW,223,5.0,12.0,92,0.01,,,0.42,0.000000,,2013-11-20 05:33:00,
2013-11-19 21:43:00,41.0,39.0,-100.00,SW,223,5.0,12.0,92,0.01,,,0.42,0.000000,,2013-11-20 05:43:00,
2013-11-19 21:52:00,41.0,39.0,-100.00,SW,223,5.0,12.0,92,0.01,,,0.42,0.000000,,2013-11-20 05:52:00,
2013-11-19 22:21:00,41.0,40.0,-100.00,SW,221,7.0,10.0,95,0.01,,,0.40,0.000000,,2013-11-20 06:21:00,
2013-11-19 22:32:00,41.0,40.0,-100.00,SW,221,7.0,10.0,95,0.01,,,0.40,0.000000,,2013-11-20 06:32:00,
2013-11-19 22:42:00,41.0,40.0,-100.00,SW,221,7.0,10.0,95,0.01,,,0.40,0.000000,,2013-11-20 06:42:00,
2013-11-19 22:52:00,41.0,40.0,-100.00,SW,221,7.0,10.0,95,0.01,,,0.40,0.000000,,2013-11-20 06:52:00,
2013-11-19 23:21:00,41.0,40.0,-100.00,SW,221,8.0,16.0,96,0.03,,,0.39,0.000000,,2013-11-20 07:21:00,
2013-11-19 23:32:00,41.0,40.0,-100.00,SW,221,8.0,16.0,96,0.03,,,0.39,0.000000,,2013-11-20 07:32:00,
2013-11-19 23:42:00,41.0,40.0,-100.00,SW,221,8.0,16.0,96,0.03,,,0.39,0.000000,,2013-11-20 07:42:00,
2013-11-19 23:52:00,41.0,40.0,-100.00,SW,221,8.0,16.0,96,0.03,,,0.39,0.000000,,2013-11-20 07:52:00,